Time;durP1;ratioP1;P1;durP2;ratioP2;P2;SDS_P1;SDS_P2;PMS_P1;PMS_P2;Temp;Humidity;BMP_temperature;BMP_pressure;BME280_temperature;BME280_humidity;BME280_pressure;Samples;Min_cycle;Max_cycle;Signal;HPM_P1;HPM_P2
2021/06/02 00:01:53;;;;;;;64.53;30.20;;;;;;;15.04;50.36;98784.66;4943850;28;20047;-72
2021/06/02 00:04:19;;;;;;;69.82;29.48;;;;;;;15.00;50.69;98776.22;4947999;29;20086;-72
2021/06/02 00:06:48;;;;;;;57.67;27.10;;;;;;;14.98;50.36;98785.94;4947252;28;20106;-72
2021/06/02 00:09:15;;;;;;;54.03;25.73;;;;;;;14.95;50.50;98784.63;4947064;28;20389;-73
2021/06/02 00:11:41;;;;;;;63.78;26.70;;;;;;;14.89;50.68;98781.16;4945260;28;20034;-72
2021/06/02 00:14:07;;;;;;;59.20;26.08;;;;;;;14.86;50.67;98779.06;4949846;28;20031;-72
2021/06/02 00:16:32;;;;;;;61.72;26.75;;;;;;;14.85;50.89;98774.69;4947371;29;20038;-72
2021/06/02 00:18:58;;;;;;;60.65;26.17;;;;;;;14.84;50.62;98784.09;4948275;29;20110;-72
2021/06/02 00:21:24;;;;;;;62.80;27.98;;;;;;;14.83;50.27;98782.47;4944885;28;20059;-72
2021/06/02 00:23:49;;;;;;;63.45;26.88;;;;;;;14.81;50.48;98784.72;4947259;28;20023;-72
2021/06/02 00:26:16;;;;;;;61.28;27.58;;;;;;;14.81;50.41;98783.91;4963263;28;20104;-72
2021/06/02 00:28:42;;;;;;;62.22;27.10;;;;;;;14.80;50.46;98776.75;4947262;28;20023;-72
2021/06/02 00:31:10;;;;;;;56.40;26.27;;;;;;;14.78;50.83;98784.53;4940594;29;20054;-71
2021/06/02 00:33:35;;;;;;;58.47;24.60;;;;;;;14.73;50.63;98786.28;4939634;29;20150;-72
2021/06/02 00:36:02;;;;;;;60.38;25.88;;;;;;;14.70;50.49;98781.41;4938110;28;20110;-72
2021/06/02 00:38:28;;;;;;;59.60;25.35;;;;;;;14.67;50.73;98778.44;4941099;29;20062;-72
2021/06/02 00:40:53;;;;;;;55.97;25.10;;;;;;;14.65;50.95;98791.72;4941051;28;20462;-72
2021/06/02 00:43:19;;;;;;;53.00;24.75;;;;;;;14.64;50.71;98788.16;4946197;29;20039;-72
2021/06/02 00:45:46;;;;;;;62.00;24.88;;;;;;;14.64;50.70;98784.59;4958064;28;20035;-72
2021/06/02 00:48:13;;;;;;;54.47;24.00;;;;;;;14.62;50.65;98790.44;4940650;29;20082;-72
2021/06/02 00:50:41;;;;;;;54.72;24.50;;;;;;;14.63;50.41;98792.06;4937059;29;20030;-72
2021/06/02 00:53:08;;;;;;;50.58;24.33;;;;;;;14.63;50.59;98786.53;4951913;28;20501;-72
2021/06/02 00:55:34;;;;;;;55.88;25.88;;;;;;;14.64;50.48;98790.09;4959707;28;20058;-72
2021/06/02 00:58:02;;;;;;;58.78;24.98;;;;;;;14.64;50.48;98787.34;4938905;29;20434;-72
2021/06/02 01:00:28;;;;;;;57.55;25.20;;;;;;;14.62;50.81;98793.19;4939150;29;20074;-71
2021/06/02 01:02:54;;;;;;;53.75;24.38;;;;;;;14.57;50.59;98791.34;4942263;28;20040;-73
2021/06/02 01:05:23;;;;;;;57.45;25.65;;;;;;;14.53;50.41;98784.84;4944862;28;20024;-74
2021/06/02 01:07:52;;;;;;;54.78;25.27;;;;;;;14.50;50.55;98784.66;4943184;29;20089;-73
2021/06/02 01:10:19;;;;;;;54.28;25.42;;;;;;;14.46;50.46;98791.94;4948299;29;20035;-73
2021/06/02 01:12:48;;;;;;;56.58;25.17;;;;;;;14.42;50.57;98787.03;4945679;29;20054;-73
2021/06/02 01:15:15;;;;;;;51.20;24.20;;;;;;;14.42;50.59;98787.03;4942543;28;20043;-73
2021/06/02 01:17:41;;;;;;;62.50;26.45;;;;;;;14.39;50.72;98786.88;4945587;28;20039;-73
2021/06/02 01:20:07;;;;;;;57.42;26.65;;;;;;;14.36;50.48;98795.78;4954592;28;20023;-71
2021/06/02 01:22:34;;;;;;;60.92;27.05;;;;;;;14.30;50.52;98792.28;4943161;28;20077;-71
2021/06/02 01:25:22;;;;;;;57.08;27.50;;;;;;;14.24;50.61;98796.34;4947325;28;20541;-71
2021/06/02 01:27:48;;;;;;;58.08;27.95;;;;;;;14.16;50.36;98792.34;4946383;29;20024;-71
2021/06/02 01:30:18;;;;;;;59.28;27.52;;;;;;;14.07;50.43;98803.31;4942339;28;20031;-71
2021/06/02 01:33:02;;;;;;;;;;;;;;;13.98;50.18;98807.94;4943754;28;20023;-71
2021/06/02 01:35:51;;;;;;;58.03;25.23;;;;;;;13.84;50.18;98800.53;4942544;28;19925;-71
2021/06/02 01:38:49;;;;;;;62.33;26.45;;;;;;;13.70;50.39;98797.78;4932261;29;21360;-70
2021/06/02 01:41:28;;;;;;;61.25;26.52;;;;;;;13.61;50.39;98801.56;4948169;29;20032;-72
2021/06/02 01:44:17;;;;;;;62.00;25.95;;;;;;;13.53;50.55;98806.69;4948330;29;20285;-72
2021/06/02 01:47:00;;;;;;;59.53;27.33;;;;;;;13.44;50.62;98807.72;4943456;29;20086;-73
2021/06/02 01:49:47;;;;;;;56.20;25.65;;;;;;;13.38;50.74;98813.28;4948639;28;20035;-72
2021/06/02 01:52:50;;;;;;;62.38;25.42;;;;;;;13.30;50.86;98819.50;4946717;29;20046;-72
2021/06/02 01:55:52;;;;;;;58.22;26.23;;;;;;;13.22;50.68;98814.72;4946276;29;20045;-72
2021/06/02 01:58:27;;;;;;;61.40;26.48;;;;;;;13.15;50.79;98815.13;4950107;29;20027;-72
2021/06/02 02:01:14;;;;;;;67.20;27.50;;;;;;;13.10;50.94;98815.22;4963971;28;20039;-73
2021/06/02 02:03:51;;;;;;;62.88;28.00;;;;;;;13.03;51.11;98823.06;4947352;29;20038;-72
2021/06/02 02:06:19;;;;;;;64.93;28.13;;;;;;;12.98;51.32;98829.47;4944525;28;20066;-72
2021/06/02 02:09:07;;;;;;;64.82;28.73;;;;;;;12.92;51.21;98823.25;4947336;29;20033;-72
2021/06/02 02:11:42;;;;;;;59.00;27.25;;;;;;;12.87;51.48;98820.59;4905822;29;20499;-72
2021/06/02 02:14:17;;;;;;;61.22;28.00;;;;;;;12.80;51.41;98826.50;4950512;28;20398;-72
2021/06/02 02:16:42;;;;;;;63.70;27.70;;;;;;;12.76;51.53;98830.13;4962529;28;20082;-72
2021/06/02 02:19:13;;;;;;;66.32;28.63;;;;;;;12.70;51.42;98820.34;4946258;28;20024;-72
2021/06/02 02:22:02;;;;;;;59.72;26.88;;;;;;;12.65;52.04;98824.00;4942524;28;20031;-72
2021/06/02 02:24:44;;;;;;;58.47;27.83;;;;;;;12.62;51.80;98819.09;4939356;29;20394;-72
2021/06/02 02:27:22;;;;;;;60.17;28.52;;;;;;;12.54;51.51;98822.53;4940976;29;20035;-71
2021/06/02 02:30:01;;;;;;;57.67;27.23;;;;;;;12.47;51.82;98823.72;4944212;28;20031;-72
2021/06/02 02:33:00;;;;;;;62.72;29.30;;;;;;;12.36;51.94;98820.31;4942065;29;20031;-72
2021/06/02 02:35:38;;;;;;;62.15;27.60;;;;;;;12.28;51.76;98817.44;4941332;29;20024;-72
2021/06/02 02:38:30;;;;;;;58.05;26.63;;;;;;;12.17;52.05;98823.09;4945005;28;20043;-72
2021/06/02 02:41:09;;;;;;;62.53;27.45;;;;;;;12.11;52.17;98823.47;4939766;29;20059;-72
2021/06/02 02:43:43;;;;;;;60.45;27.35;;;;;;;12.07;52.60;98823.22;4945541;29;20553;-72
2021/06/02 02:46:14;;;;;;;61.67;27.13;;;;;;;12.06;52.45;98819.69;4944232;29;20043;-72
2021/06/02 02:48:51;;;;;;;60.45;26.70;;;;;;;12.04;52.24;98823.81;4941444;29;20035;-71
2021/06/02 02:52:04;;;;;;;56.17;25.80;;;;;;;12.00;52.34;98829.13;4938774;29;20059;-72
2021/06/02 02:54:44;;;;;;;59.85;27.35;;;;;;;11.95;53.19;98831.09;4872838;29;20057;-72
2021/06/02 02:57:09;;;;;;;;;;;;;;;11.89;53.05;98831.16;4947978;29;20032;-72
2021/06/02 02:59:52;;;;;;;68.35;27.10;;;;;;;11.86;53.10;98826.25;4944321;29;20012;-72
2021/06/02 03:02:28;;;;;;;62.55;26.92;;;;;;;11.79;53.19;98834.03;4941642;29;20115;-72
2021/06/02 03:04:58;;;;;;;66.57;27.73;;;;;;;11.74;52.57;98823.09;4940831;29;20039;-72
2021/06/02 03:07:24;;;;;;;;;;;;;;;11.70;53.12;98828.38;4938570;29;20047;-72
2021/06/02 03:10:05;;;;;;;57.78;26.60;;;;;;;11.66;53.38;98832.00;4939885;29;19918;-72
2021/06/02 03:12:42;;;;;;;60.90;27.92;;;;;;;11.63;53.22;98830.69;4943742;29;20027;-72
2021/06/02 03:15:17;;;;;;;60.40;27.67;;;;;;;11.60;53.37;98832.09;4975108;28;20639;-72
2021/06/02 03:17:54;;;;;;;58.60;26.98;;;;;;;11.58;53.83;98833.47;4944216;28;20066;-72
2021/06/02 03:20:23;;;;;;;55.80;27.02;;;;;;;11.59;53.94;98835.94;4943340;28;20023;-72
2021/06/02 03:22:54;;;;;;;61.63;28.60;;;;;;;11.59;53.92;98841.44;4963664;28;20027;-72
2021/06/02 03:25:26;;;;;;;59.67;27.67;;;;;;;11.64;53.52;98845.22;4947806;29;20055;-73
2021/06/02 03:28:19;;;;;;;59.97;27.60;;;;;;;11.66;53.46;98843.81;4960545;28;20102;-73
2021/06/02 03:31:02;;;;;;;62.25;27.70;;;;;;;11.69;53.97;98854.22;4949398;28;20067;-73
2021/06/02 03:33:46;;;;;;;57.67;26.45;;;;;;;11.70;53.59;98861.38;4949372;29;20045;-72
2021/06/02 03:36:34;;;;;;;59.00;26.75;;;;;;;11.72;53.76;98858.31;4945518;29;20082;-73
2021/06/02 03:39:24;;;;;;;56.08;25.58;;;;;;;11.74;54.50;98864.31;4943847;29;20048;-73
2021/06/02 03:42:15;;;;;;;57.78;26.90;;;;;;;11.74;53.93;98867.91;4936963;29;20034;-73
2021/06/02 03:45:02;;;;;;;54.17;25.73;;;;;;;11.75;54.70;98865.97;4938890;29;20023;-73
2021/06/02 03:47:52;;;;;;;64.97;28.00;;;;;;;11.75;53.96;98869.53;4942610;29;20027;-73
2021/06/02 03:50:28;;;;;;;59.70;25.60;;;;;;;11.73;54.02;98871.78;4945016;29;20437;-73
2021/06/02 03:52:59;;;;;;;52.83;26.13;;;;;;;11.73;54.77;98869.03;4958356;28;20027;-73
2021/06/02 03:55:32;;;;;;;58.85;26.85;;;;;;;11.72;54.98;98872.88;4942816;29;20058;-73
2021/06/02 03:58:00;;;;;;;61.00;26.52;;;;;;;11.76;54.09;98879.44;4942331;28;20034;-73
2021/06/02 04:00:37;;;;;;;56.38;25.30;;;;;;;11.77;55.10;98872.81;4939829;28;20055;-73
2021/06/02 04:03:06;;;;;;;56.58;25.33;;;;;;;11.81;54.72;98873.03;4944813;29;20223;-73
2021/06/02 04:05:41;;;;;;;54.17;25.42;;;;;;;11.84;54.51;98864.22;4943874;29;20019;-73
2021/06/02 04:08:34;;;;;;;57.65;25.35;;;;;;;11.86;55.11;98875.72;4945915;28;20040;-73
2021/06/02 04:11:47;;;;;;;55.00;25.45;;;;;;;11.91;55.45;98869.31;4942322;29;20031;-73
2021/06/02 04:14:31;;;;;;;54.97;25.63;;;;;;;11.98;54.88;98874.47;4933672;28;20051;-73
2021/06/02 04:16:57;;;;;;;59.20;25.60;;;;;;;12.04;54.87;98873.31;4942960;29;20039;-73
2021/06/02 04:19:25;;;;;;;56.10;25.05;;;;;;;12.09;55.58;98881.50;4944978;28;20107;-73
2021/06/02 04:21:51;;;;;;;52.85;25.10;;;;;;;12.14;55.43;98883.38;4938941;29;20042;-73
2021/06/02 04:24:18;;;;;;;54.75;25.52;;;;;;;12.18;55.25;98881.66;4939392;29;20031;-73
2021/06/02 04:26:45;;;;;;;54.58;24.63;;;;;;;12.20;55.65;98887.69;4942460;28;20028;-73
2021/06/02 04:29:13;;;;;;;51.63;23.92;;;;;;;12.23;55.50;98886.25;4943804;28;20040;-73
2021/06/02 04:31:56;;;;;;;49.35;23.35;;;;;;;12.27;55.17;98893.63;4942236;29;20470;-73
2021/06/02 04:34:28;;;;;;;55.88;24.92;;;;;;;12.31;55.35;98891.91;4944538;29;20039;-73
2021/06/02 04:36:54;;;;;;;53.42;24.33;;;;;;;12.37;55.28;98898.16;4942999;28;20016;-73
2021/06/02 04:39:21;;;;;;;51.55;23.60;;;;;;;12.45;55.28;98902.97;4947154;28;20035;-72
2021/06/02 04:41:48;;;;;;;49.97;23.20;;;;;;;12.53;55.12;98904.25;4949720;29;20030;-73
2021/06/02 04:44:16;;;;;;;53.15;23.45;;;;;;;12.61;55.89;98913.75;4944779;28;20024;-74
2021/06/02 04:46:46;;;;;;;54.78;24.80;;;;;;;12.65;55.37;98907.34;4950198;28;20536;-74
2021/06/02 04:49:13;;;;;;;51.45;23.50;;;;;;;12.72;55.73;98917.16;4947139;28;20027;-73
2021/06/02 04:51:41;;;;;;;48.53;22.52;;;;;;;12.77;55.54;98920.69;4945182;29;20385;-72
2021/06/02 04:54:44;;;;;;;50.20;23.15;;;;;;;12.81;55.04;98915.38;4955687;28;20501;-73
2021/06/02 04:57:39;;;;;;;45.47;22.63;;;;;;;12.88;55.54;98912.22;4947683;29;20031;-72
2021/06/02 05:00:22;;;;;;;42.65;21.30;;;;;;;12.91;55.46;98917.97;4929794;29;20040;-73
2021/06/02 05:03:20;;;;;;;48.17;20.58;;;;;;;12.98;55.01;98917.56;4961017;28;20059;-72
2021/06/02 05:06:04;;;;;;;44.53;20.92;;;;;;;13.04;55.39;98919.13;4947225;28;20070;-72
2021/06/02 05:08:48;;;;;;;41.22;20.67;;;;;;;13.09;55.00;98920.97;4947315;29;20027;-73
2021/06/02 05:11:28;;;;;;;45.25;19.30;;;;;;;13.14;55.60;98928.34;4950442;28;20078;-73
2021/06/02 05:14:06;;;;;;;42.28;18.73;;;;;;;13.19;55.45;98931.00;4949114;29;20055;-73
2021/06/02 05:17:02;;;;;;;40.33;18.27;;;;;;;13.23;54.95;98930.09;4977139;28;20031;-73
2021/06/02 05:22:32;;;;;;;39.85;17.85;;;;;;;13.40;55.23;98937.78;4948692;28;20059;-74
2021/06/02 05:25:31;;;;;;;39.58;17.88;;;;;;;13.46;55.00;98943.22;4950719;29;20035;-73
2021/06/02 05:28:24;;;;;;;35.20;17.92;;;;;;;13.53;55.32;98949.16;4950529;29;20053;-73
2021/06/02 05:31:27;;;;;;;35.88;18.60;;;;;;;13.62;54.91;98952.88;4949686;29;20027;-73
2021/06/02 05:34:34;;;;;;;37.08;18.85;;;;;;;13.69;54.75;98955.22;4949855;29;20054;-73
2021/06/02 05:37:16;;;;;;;42.47;18.10;;;;;;;13.78;54.61;98952.56;4937797;29;20039;-73
2021/06/02 05:39:47;;;;;;;163.45;51.58;;;;;;;13.86;54.56;98962.06;4941494;29;20154;-72
2021/06/02 05:42:27;;;;;;;151.52;45.88;;;;;;;13.94;54.64;98959.41;4937200;29;20063;-73
2021/06/02 05:45:01;;;;;;;140.70;40.78;;;;;;;14.02;54.30;98951.56;4940746;29;20046;-72
2021/06/02 05:47:33;;;;;;;63.15;30.67;;;;;;;14.10;54.19;98957.16;4939644;29;20035;-73
2021/06/02 05:50:35;;;;;;;39.80;20.25;;;;;;;14.17;54.07;98956.72;4942173;28;20394;-72
2021/06/02 05:53:23;;;;;;;28.40;14.57;;;;;;;14.25;53.69;98961.53;4940486;29;20032;-73
2021/06/02 05:56:22;;;;;;;498.83;107.13;;;;;;;14.37;53.99;98954.69;4944516;29;20055;-73
2021/06/02 05:59:22;;;;;;;212.48;49.40;;;;;;;14.47;53.60;98962.72;4944342;29;20123;-72
2021/06/02 06:01:57;;;;;;;47.47;20.20;;;;;;;14.57;53.22;98961.69;4938460;29;20031;-72
2021/06/02 06:04:34;;;;;;;26.35;13.40;;;;;;;14.66;53.08;98970.88;4946980;28;20035;-72
2021/06/02 06:07:15;;;;;;;27.20;12.90;;;;;;;14.76;53.02;98960.72;4946606;29;20107;-72
2021/06/02 06:09:58;;;;;;;25.83;12.10;;;;;;;14.84;52.82;98960.00;4948241;28;20035;-72
2021/06/02 06:12:45;;;;;;;28.08;12.35;;;;;;;14.93;52.57;98963.66;4938820;29;20043;-70
2021/06/02 06:15:25;;;;;;;26.85;12.88;;;;;;;15.01;52.72;98962.06;4934916;29;20063;-70
2021/06/02 06:17:56;;;;;;;24.65;12.40;;;;;;;15.08;52.47;98961.66;4948129;29;20038;-70
2021/06/02 06:20:53;;;;;;;25.10;11.43;;;;;;;15.18;52.26;98967.72;4952457;29;20038;-70
2021/06/02 06:23:33;;;;;;;23.45;10.73;;;;;;;15.30;51.70;98967.16;4953981;28;20156;-70
2021/06/02 06:26:08;;;;;;;21.45;11.90;;;;;;;15.39;51.70;98966.41;4953888;28;20809;-69
2021/06/02 06:28:45;;;;;;;21.33;10.25;;;;;;;15.47;51.58;98966.44;4953619;28;20039;-70
2021/06/02 06:31:25;;;;;;;28.05;11.68;;;;;;;15.55;51.55;98964.84;4946877;28;20058;-70
2021/06/02 06:33:52;;;;;;;21.75;10.82;;;;;;;15.66;51.33;98961.81;4941229;28;20067;-69
2021/06/02 06:36:22;;;;;;;19.08;9.82;;;;;;;15.77;51.60;98966.75;4935782;28;20492;-70
2021/06/02 06:39:08;;;;;;;21.17;9.85;;;;;;;15.89;51.74;98974.50;4936408;29;20110;-69
2021/06/02 06:41:36;;;;;;;23.42;10.98;;;;;;;15.96;51.18;98960.19;4950405;28;20031;-69
2021/06/02 06:44:03;;;;;;;21.42;10.55;;;;;;;16.05;51.40;98960.22;4945669;28;20125;-69
2021/06/02 06:46:29;;;;;;;20.52;10.10;;;;;;;16.17;51.21;98960.41;4941502;28;20043;-70
2021/06/02 06:48:58;;;;;;;21.98;9.45;;;;;;;16.28;50.82;98965.66;4937497;29;20390;-70
2021/06/02 06:51:26;;;;;;;16.73;7.88;;;;;;;16.35;50.45;98958.50;4934479;28;20110;-70
2021/06/02 06:53:53;;;;;;;17.27;7.53;;;;;;;16.44;50.09;98961.28;4942925;29;20061;-68
2021/06/02 06:56:19;;;;;;;20.13;9.18;;;;;;;16.56;50.15;98965.38;4951391;28;20033;-69
2021/06/02 06:58:46;;;;;;;17.98;8.60;;;;;;;16.65;50.09;98960.66;4939385;29;20086;-70
2021/06/02 07:01:15;;;;;;;58.60;19.90;;;;;;;16.74;49.96;98958.69;4946292;28;20027;-70
2021/06/02 07:03:42;;;;;;;21.63;9.60;;;;;;;16.82;49.79;98965.41;4933980;29;20043;-69
2021/06/02 07:06:12;;;;;;;18.73;8.95;;;;;;;16.87;49.09;98965.25;4942130;29;20031;-69
2021/06/02 07:08:41;;;;;;;14.23;8.30;;;;;;;16.90;48.32;98969.31;4953163;29;20821;-70
2021/06/02 07:11:06;;;;;;;20.58;8.40;;;;;;;16.94;48.10;98971.09;4938076;29;20398;-71
2021/06/02 07:13:33;;;;;;;15.18;7.40;;;;;;;17.00;48.31;98966.25;4945584;29;20015;-70
2021/06/02 07:16:01;;;;;;;14.75;7.35;;;;;;;17.07;48.11;98963.81;4939898;29;20581;-70
2021/06/02 07:18:30;;;;;;;17.75;7.25;;;;;;;17.14;47.56;98968.84;4940411;29;20086;-71
2021/06/02 07:20:57;;;;;;;15.50;7.63;;;;;;;17.16;46.29;98963.78;4939125;29;20385;-72
2021/06/02 07:23:23;;;;;;;18.90;7.85;;;;;;;17.16;46.54;98965.72;4935075;28;20487;-70
2021/06/02 07:25:49;;;;;;;13.80;6.57;;;;;;;17.19;46.68;98965.06;4934122;29;20114;-70
2021/06/02 07:28:23;;;;;;;17.33;7.05;;;;;;;17.28;46.72;98967.84;4950146;28;20394;-70
2021/06/02 07:30:48;;;;;;;15.10;7.47;;;;;;;17.35;45.87;98971.75;4952028;29;20027;-72
2021/06/02 07:33:14;;;;;;;15.45;7.85;;;;;;;17.39;46.00;98974.66;4945195;28;20051;-68
2021/06/02 07:35:39;;;;;;;17.05;7.82;;;;;;;17.47;45.34;98976.59;4944857;28;20028;-69
2021/06/02 07:38:04;;;;;;;21.88;9.73;;;;;;;17.55;45.58;98972.16;4935748;28;20469;-69
2021/06/02 07:40:30;;;;;;;23.30;10.23;;;;;;;17.63;45.03;98965.78;4934844;29;20035;-70
2021/06/02 07:42:55;;;;;;;20.15;8.13;;;;;;;17.69;45.17;98975.56;4946573;28;20039;-69
2021/06/02 07:45:20;;;;;;;11.38;5.85;;;;;;;17.79;44.74;98976.34;4938533;28;20034;-69
2021/06/02 07:47:46;;;;;;;14.88;8.07;;;;;;;17.82;44.47;98976.50;4933317;29;20038;-69
2021/06/02 07:50:12;;;;;;;10.98;5.30;;;;;;;17.90;44.48;98974.84;4947960;29;20058;-70
2021/06/02 07:52:38;;;;;;;25.85;6.47;;;;;;;17.94;43.95;98984.13;4932484;29;20051;-69
2021/06/02 07:55:04;;;;;;;13.45;7.30;;;;;;;18.00;43.95;98976.47;4933391;29;20028;-69
2021/06/02 07:57:31;;;;;;;11.98;6.00;;;;;;;18.06;43.57;98977.91;4936851;29;20055;-69
2021/06/02 07:59:56;;;;;;;11.55;6.10;;;;;;;18.12;43.29;98989.63;4937299;29;20039;-70
2021/06/02 08:02:22;;;;;;;9.75;5.57;;;;;;;18.17;42.75;98985.84;4941417;29;20512;-69
2021/06/02 08:04:47;;;;;;;11.45;5.38;;;;;;;18.19;42.59;98984.38;4943207;29;20031;-70
2021/06/02 08:07:13;;;;;;;12.35;6.38;;;;;;;18.24;42.78;98978.63;4942036;28;20046;-69
2021/06/02 08:09:38;;;;;;;10.40;5.00;;;;;;;18.33;42.17;98977.78;4939454;29;20047;-69
2021/06/02 08:12:10;;;;;;;10.63;5.60;;;;;;;18.38;42.21;98980.34;4935586;29;20103;-70
2021/06/02 08:14:35;;;;;;;11.68;5.85;;;;;;;18.42;42.01;98987.69;4952556;28;20039;-69
2021/06/02 08:17:01;;;;;;;11.05;5.18;;;;;;;18.48;41.46;98981.94;4953933;29;20878;-71
2021/06/02 08:19:26;;;;;;;9.88;5.22;;;;;;;18.50;41.46;98976.84;4945326;28;20079;-71
2021/06/02 08:21:51;;;;;;;8.38;4.65;;;;;;;18.52;41.08;98980.13;4940847;29;20555;-70
2021/06/02 08:24:17;;;;;;;12.52;5.28;;;;;;;18.56;40.80;98981.88;4953310;28;20041;-70
2021/06/02 08:26:45;;;;;;;55.72;12.90;;;;;;;18.58;40.25;98976.78;4947457;29;20478;-72
2021/06/02 08:29:11;;;;;;;43.58;14.90;;;;;;;18.65;40.26;98981.78;4952249;28;20035;-69
2021/06/02 08:31:36;;;;;;;12.60;6.45;;;;;;;18.70;39.96;98983.59;4943481;29;20034;-73
2021/06/02 08:34:02;;;;;;;15.82;8.45;;;;;;;18.74;39.57;98979.78;4952719;29;20027;-74
2021/06/02 08:36:28;;;;;;;10.50;5.88;;;;;;;18.77;39.82;98983.84;4949258;29;20054;-76
2021/06/02 08:38:54;;;;;;;11.77;7.85;;;;;;;18.83;39.76;98979.69;4943622;29;20071;-74
2021/06/02 08:41:20;;;;;;;9.35;4.97;;;;;;;18.89;39.46;98983.91;4942197;29;20401;-72
2021/06/02 08:43:47;;;;;;;12.82;7.45;;;;;;;18.93;39.92;98984.06;4944255;29;20060;-74
2021/06/02 08:46:14;;;;;;;12.65;8.73;;;;;;;19.01;39.95;98979.59;4946944;29;20438;-74
2021/06/02 08:48:44;;;;;;;13.55;6.57;;;;;;;19.11;40.32;98975.59;4945275;29;20082;-74
2021/06/02 08:51:09;;;;;;;11.73;5.70;;;;;;;19.15;39.83;98985.69;4945981;29;20097;-73
2021/06/02 08:53:36;;;;;;;8.57;4.53;;;;;;;19.19;38.74;98983.03;4949440;29;20401;-73
2021/06/02 08:56:05;;;;;;;7.95;4.70;;;;;;;19.18;38.92;98993.34;4939328;29;20028;-74
2021/06/02 08:58:31;;;;;;;9.25;5.60;;;;;;;19.16;38.55;98987.31;4951728;28;20026;-71
2021/06/02 09:00:57;;;;;;;9.27;4.80;;;;;;;19.19;38.70;98985.81;4945980;29;20122;-74
2021/06/02 09:03:22;;;;;;;11.63;5.35;;;;;;;19.25;38.60;98984.47;4940754;28;20090;-72
2021/06/02 09:05:48;;;;;;;7.28;4.45;;;;;;;19.31;38.23;98990.63;4946633;28;20030;-76
2021/06/02 09:08:15;;;;;;;9.75;5.28;;;;;;;19.37;38.88;98992.03;4950445;29;20039;-71
2021/06/02 09:10:43;;;;;;;13.90;7.72;;;;;;;19.45;38.42;98984.75;4946119;29;20024;-73
2021/06/02 09:13:18;;;;;;;10.77;4.43;;;;;;;19.54;38.52;98985.47;4937947;29;20064;-75
2021/06/02 09:15:46;;;;;;;9.65;4.55;;;;;;;19.58;38.68;98993.94;4938026;29;20111;-74
2021/06/02 09:18:19;;;;;;;8.98;4.57;;;;;;;19.60;38.43;98994.41;4948358;28;20031;-74
2021/06/02 09:20:53;;;;;;;9.25;4.80;;;;;;;19.66;38.07;98997.81;4938507;29;20027;-73
2021/06/02 09:23:30;;;;;;;9.73;5.45;;;;;;;19.68;38.02;98995.47;4944611;28;20046;-76
2021/06/02 09:26:17;;;;;;;10.48;4.65;;;;;;;19.70;38.08;98998.75;4939161;29;20020;-75
2021/06/02 09:29:00;;;;;;;11.18;5.80;;;;;;;19.70;37.62;98995.97;4943893;29;20051;-75
2021/06/02 09:31:33;;;;;;;7.55;4.82;;;;;;;19.69;37.53;99002.69;4942677;29;20106;-73
2021/06/02 09:34:18;;;;;;;14.35;5.40;;;;;;;19.72;37.35;98996.44;4948709;29;20271;-74
2021/06/02 09:36:47;;;;;;;10.13;4.50;;;;;;;19.75;37.33;98984.59;4944817;29;20031;-74
2021/06/02 09:39:23;;;;;;;12.52;5.05;;;;;;;19.79;37.46;98993.88;4955878;28;20055;-75
2021/06/02 09:41:48;;;;;;;12.55;5.25;;;;;;;19.81;37.44;99001.88;4941121;28;20031;-73
2021/06/02 09:44:23;;;;;;;9.02;5.25;;;;;;;19.83;37.43;98999.56;4939045;29;20030;-74
2021/06/02 09:47:08;;;;;;;14.98;4.80;;;;;;;19.91;37.87;98998.69;4933856;29;20170;-74
2021/06/02 09:49:56;;;;;;;12.05;5.80;;;;;;;19.96;37.64;98989.28;4934467;29;20030;-73
2021/06/02 09:52:38;;;;;;;11.38;4.63;;;;;;;20.03;38.01;98989.53;4935646;28;20027;-74
2021/06/02 09:55:22;;;;;;;9.13;4.43;;;;;;;20.08;37.60;98990.09;4934237;29;20040;-72
2021/06/02 09:58:05;;;;;;;9.98;6.22;;;;;;;20.06;36.33;98995.22;4937199;28;20040;-73
2021/06/02 10:00:35;;;;;;;10.75;4.88;;;;;;;20.03;35.83;98995.09;4933863;29;20031;-74
2021/06/02 10:03:04;;;;;;;10.93;5.07;;;;;;;20.00;35.75;98995.78;4933407;29;20123;-74
2021/06/02 10:05:35;;;;;;;10.43;4.90;;;;;;;20.02;36.45;99001.84;4935381;29;20070;-73
2021/06/02 10:08:01;;;;;;;8.60;4.63;;;;;;;20.01;36.12;98998.22;4935623;29;20086;-73
2021/06/02 10:10:27;;;;;;;9.52;4.60;;;;;;;20.03;36.16;98992.31;4935627;29;20027;-74
2021/06/02 10:13:00;;;;;;;8.38;4.50;;;;;;;20.06;36.40;98998.00;4934960;29;20062;-74
2021/06/02 10:15:28;;;;;;;7.57;4.28;;;;;;;20.12;36.15;98990.25;4937099;29;20763;-74
2021/06/02 10:17:54;;;;;;;7.70;4.55;;;;;;;20.14;36.00;98992.66;4935209;29;20076;-75
2021/06/02 10:20:20;;;;;;;6.60;4.38;;;;;;;20.16;36.20;98991.19;4935294;29;20031;-74
2021/06/02 10:22:51;;;;;;;11.57;5.00;;;;;;;20.22;36.82;98989.75;4944808;29;20111;-73
2021/06/02 10:25:17;;;;;;;14.88;5.57;;;;;;;20.30;36.91;98993.59;4939423;29;20035;-74
2021/06/02 10:27:43;;;;;;;10.73;4.95;;;;;;;20.33;35.79;98987.34;4950265;28;20035;-74
2021/06/02 10:30:09;;;;;;;13.02;5.15;;;;;;;20.33;36.44;98980.94;4933461;29;20031;-74
2021/06/02 10:32:34;;;;;;;13.10;5.50;;;;;;;20.35;35.71;98981.41;4931671;29;20587;-73
2021/06/02 10:35:00;;;;;;;9.27;4.78;;;;;;;20.32;34.75;98977.34;4933290;29;20073;-74
2021/06/02 10:37:25;;;;;;;7.45;4.70;;;;;;;20.33;35.54;98990.13;4933040;29;20475;-73
2021/06/02 10:40:01;;;;;;;13.68;5.03;;;;;;;20.38;35.60;98992.66;4934330;29;20078;-73
2021/06/02 10:42:36;;;;;;;10.38;5.45;;;;;;;20.39;35.54;98990.69;4951264;29;20130;-74
2021/06/02 10:45:11;;;;;;;13.35;5.70;;;;;;;20.47;35.83;99002.88;4951001;29;20035;-73
2021/06/02 10:47:36;;;;;;;11.23;5.40;;;;;;;20.50;35.77;98989.06;4931292;29;20032;-73
2021/06/02 10:50:02;;;;;;;12.15;5.72;;;;;;;20.53;35.51;98991.16;4941571;28;20031;-74
2021/06/02 10:52:39;;;;;;;26.58;14.40;;;;;;;20.58;36.01;98984.53;4937990;28;20103;-74
2021/06/02 10:55:42;;;;;;;13.50;6.22;;;;;;;20.61;35.46;98983.00;4937583;29;20043;-75
2021/06/02 10:58:23;;;;;;;12.02;5.00;;;;;;;20.59;34.99;98982.53;4912813;29;20043;-73
2021/06/02 11:01:14;;;;;;;10.52;4.82;;;;;;;20.55;35.00;98979.66;4952119;29;20038;-74
2021/06/02 11:03:43;;;;;;;9.32;4.78;;;;;;;20.59;35.41;98988.09;4943879;29;20043;-73
2021/06/02 11:06:14;;;;;;;11.98;4.85;;;;;;;20.68;35.79;98980.44;4937075;29;20028;-74
2021/06/02 11:08:52;;;;;;;12.65;5.00;;;;;;;20.75;35.93;98977.88;4949050;29;20486;-73
2021/06/02 11:11:31;;;;;;;10.32;5.30;;;;;;;20.84;35.78;98974.97;4936420;29;20024;-72
2021/06/02 11:14:20;;;;;;;13.07;5.32;;;;;;;20.87;35.60;98963.09;4948413;29;20083;-72
2021/06/02 11:16:59;;;;;;;8.90;5.10;;;;;;;20.93;35.62;98975.63;4953798;28;20529;-74
2021/06/02 11:19:27;;;;;;;10.10;4.80;;;;;;;21.00;35.72;98968.66;4953573;28;20110;-72
2021/06/02 11:21:54;;;;;;;8.35;5.13;;;;;;;21.06;35.18;98970.81;4954723;28;20024;-73
2021/06/02 11:24:39;;;;;;;17.25;5.47;;;;;;;21.07;35.03;98969.66;4954565;29;20549;-73
2021/06/02 11:27:14;;;;;;;13.00;6.38;;;;;;;21.06;34.57;98979.19;4954927;28;20434;-72
2021/06/02 11:29:51;;;;;;;15.70;6.50;;;;;;;21.01;34.20;98990.59;4954637;29;20430;-73
2021/06/02 11:32:23;;;;;;;11.43;7.07;;;;;;;20.99;34.18;98976.19;4953479;29;20083;-73
2021/06/02 11:34:52;;;;;;;11.68;5.88;;;;;;;21.05;34.55;98979.56;4953549;29;20090;-73
2021/06/02 11:37:22;;;;;;;9.15;5.25;;;;;;;21.07;34.64;98969.66;4954843;28;20154;-74
2021/06/02 11:39:51;;;;;;;15.40;6.38;;;;;;;21.14;35.01;98974.66;4953544;29;20043;-74
2021/06/02 11:42:39;;;;;;;13.93;6.30;;;;;;;21.24;34.92;98978.91;4953229;29;20039;-73
2021/06/02 11:45:14;;;;;;;13.18;6.10;;;;;;;21.30;34.48;98974.69;4955022;28;20594;-73
2021/06/02 11:47:49;;;;;;;9.45;5.07;;;;;;;21.34;34.16;98975.59;4953803;28;20106;-73
2021/06/02 11:50:17;;;;;;;13.80;6.15;;;;;;;21.39;34.54;98966.16;4954251;28;20154;-72
2021/06/02 11:52:44;;;;;;;10.27;5.53;;;;;;;21.40;34.35;98963.00;4954808;29;20126;-73
2021/06/02 11:55:16;;;;;;;16.67;6.45;;;;;;;21.42;34.17;98966.25;4953642;29;20051;-73
2021/06/02 11:57:46;;;;;;;14.77;5.78;;;;;;;21.46;34.33;98974.72;4949177;29;20038;-73